sensor_id;sensor_type;location;lat;lon;timestamp;temperature;humidity
1091;DHT22;534;48.704;9.122;2024-03-02T05:01:49;7.50;82.30
1091;DHT22;534;48.704;9.122;2024-03-02T05:04:16;7.40;82.50
1091;DHT22;534;48.704;9.122;2024-03-02T05:06:43;7.40;82.40
1091;DHT22;534;48.704;9.122;2024-03-02T05:09:10;7.40;82.40
1091;DHT22;534;48.704;9.122;2024-03-02T05:11:36;7.40;82.30
1091;DHT22;534;48.704;9.122;2024-03-02T05:14:24;7.40;82.30
1091;DHT22;534;48.704;9.122;2024-03-02T05:16:52;7.40;82.60
1091;DHT22;534;48.704;9.122;2024-03-02T05:19:19;7.30;82.70
1091;DHT22;534;48.704;9.122;2024-03-02T05:21:46;7.30;83.20
1091;DHT22;534;48.704;9.122;2024-03-02T05:24:12;7.40;83.10
1091;DHT22;534;48.704;9.122;2024-03-02T05:26:39;7.30;83.50
1091;DHT22;534;48.704;9.122;2024-03-02T05:29:05;7.30;84.10
1091;DHT22;534;48.704;9.122;2024-03-02T05:31:31;7.30;84.20
1091;DHT22;534;48.704;9.122;2024-03-02T05:33:59;7.30;83.50
1091;DHT22;534;48.704;9.122;2024-03-02T05:36:26;7.40;83.40
1091;DHT22;534;48.704;9.122;2024-03-02T05:38:53;7.40;83.00
1091;DHT22;534;48.704;9.122;2024-03-02T05:41:20;7.30;83.30
1091;DHT22;534;48.704;9.122;2024-03-02T05:43:46;7.30;83.40
1091;DHT22;534;48.704;9.122;2024-03-02T05:46:13;7.20;83.70
1091;DHT22;534;48.704;9.122;2024-03-02T05:48:39;7.20;84.30
1091;DHT22;534;48.704;9.122;2024-03-02T05:51:07;7.20;85.00
1091;DHT22;534;48.704;9.122;2024-03-02T05:53:34;7.20;85.10
1091;DHT22;534;48.704;9.122;2024-03-02T05:56:03;7.20;85.20
1091;DHT22;534;48.704;9.122;2024-03-02T05:58:31;7.20;85.00
1091;DHT22;534;48.704;9.122;2024-03-02T06:01:08;7.20;84.80
1091;DHT22;534;48.704;9.122;2024-03-02T06:03:35;7.20;84.50
1091;DHT22;534;48.704;9.122;2024-03-02T06:06:01;7.20;84.20
1091;DHT22;534;48.704;9.122;2024-03-02T06:08:29;7.30;84.10
1091;DHT22;534;48.704;9.122;2024-03-02T06:10:56;7.30;83.50
1091;DHT22;534;48.704;9.122;2024-03-02T06:13:23;7.30;83.50
1091;DHT22;534;48.704;9.122;2024-03-02T06:15:51;7.30;83.40
1091;DHT22;534;48.704;9.122;2024-03-02T06:18:17;7.40;83.20
1091;DHT22;534;48.704;9.122;2024-03-02T06:20:44;7.40;83.10
1091;DHT22;534;48.704;9.122;2024-03-02T06:23:11;7.40;83.30
1091;DHT22;534;48.704;9.122;2024-03-02T06:25:39;7.50;83.00
1091;DHT22;534;48.704;9.122;2024-03-02T06:28:05;7.50;82.80
1091;DHT22;534;48.704;9.122;2024-03-02T06:30:32;7.50;82.90
1091;DHT22;534;48.704;9.122;2024-03-02T06:32:59;7.60;82.80
1091;DHT22;534;48.704;9.122;2024-03-02T06:35:26;7.60;82.90
1091;DHT22;534;48.704;9.122;2024-03-02T06:37:52;7.70;82.80
1091;DHT22;534;48.704;9.122;2024-03-02T06:40:19;7.80;82.80
1091;DHT22;534;48.704;9.122;2024-03-02T06:42:47;7.90;82.90
1091;DHT22;534;48.704;9.122;2024-03-02T06:45:14;7.90;82.70
1091;DHT22;534;48.704;9.122;2024-03-02T06:47:40;8.00;82.60
1091;DHT22;534;48.704;9.122;2024-03-02T06:50:08;8.00;82.70
1091;DHT22;534;48.704;9.122;2024-03-02T06:52:35;8.00;82.90
1091;DHT22;534;48.704;9.122;2024-03-02T06:55:01;8.10;83.20
1091;DHT22;534;48.704;9.122;2024-03-02T06:57:29;8.10;82.90
1091;DHT22;534;48.704;9.122;2024-03-02T06:59:57;8.30;82.90
1091;DHT22;534;48.704;9.122;2024-03-02T07:02:24;8.30;82.80
1091;DHT22;534;48.704;9.122;2024-03-02T07:04:52;8.50;82.40
1091;DHT22;534;48.704;9.122;2024-03-02T07:07:19;8.70;82.60
1091;DHT22;534;48.704;9.122;2024-03-02T07:09:46;8.80;82.40
1091;DHT22;534;48.704;9.122;2024-03-02T07:12:13;9.20;81.50
1091;DHT22;534;48.704;9.122;2024-03-02T07:14:39;9.80;79.20
1091;DHT22;534;48.704;9.122;2024-03-02T07:17:25;10.40;77.40
1091;DHT22;534;48.704;9.122;2024-03-02T07:19:52;11.20;74.70
1091;DHT22;534;48.704;9.122;2024-03-02T07:22:19;11.80;74.60
1091;DHT22;534;48.704;9.122;2024-03-02T07:24:45;12.80;72.40
1091;DHT22;534;48.704;9.122;2024-03-02T07:27:13;14.40;68.70
1091;DHT22;534;48.704;9.122;2024-03-02T07:29:40;15.30;63.40
1091;DHT22;534;48.704;9.122;2024-03-02T07:32:07;16.20;63.50
1091;DHT22;534;48.704;9.122;2024-03-02T07:34:36;16.50;61.20
1091;DHT22;534;48.704;9.122;2024-03-02T07:37:03;15.80;60.70
1091;DHT22;534;48.704;9.122;2024-03-02T07:39:30;14.50;64.20
1091;DHT22;534;48.704;9.122;2024-03-02T07:41:57;13.20;67.60
1091;DHT22;534;48.704;9.122;2024-03-02T07:44:24;12.40;69.90
1091;DHT22;534;48.704;9.122;2024-03-02T07:46:50;11.70;71.90
1091;DHT22;534;48.704;9.122;2024-03-02T07:49:17;11.50;72.70
1091;DHT22;534;48.704;9.122;2024-03-02T07:51:45;11.20;73.20
1091;DHT22;534;48.704;9.122;2024-03-02T07:54:12;10.90;74.60
1091;DHT22;534;48.704;9.122;2024-03-02T07:56:38;10.90;74.60
1091;DHT22;534;48.704;9.122;2024-03-02T07:59:05;10.90;74.70
1091;DHT22;534;48.704;9.122;2024-03-02T08:01:33;10.90;74.90
1091;DHT22;534;48.704;9.122;2024-03-02T08:04:00;10.90;75.40
1091;DHT22;534;48.704;9.122;2024-03-02T08:06:29;10.90;75.10
1091;DHT22;534;48.704;9.122;2024-03-02T08:08:58;10.70;76.00
1091;DHT22;534;48.704;9.122;2024-03-02T08:11:25;10.60;76.10
1091;DHT22;534;48.704;9.122;2024-03-02T08:13:52;10.70;76.70
1091;DHT22;534;48.704;9.122;2024-03-02T08:16:20;10.70;76.30
1091;DHT22;534;48.704;9.122;2024-03-02T08:18:47;10.40;76.70
1091;DHT22;534;48.704;9.122;2024-03-02T08:21:14;10.40;77.20
1091;DHT22;534;48.704;9.122;2024-03-02T08:23:41;10.60;77.60
1091;DHT22;534;48.704;9.122;2024-03-02T08:26:10;10.60;77.00
1091;DHT22;534;48.704;9.122;2024-03-02T08:28:36;10.50;76.10
1091;DHT22;534;48.704;9.122;2024-03-02T08:31:05;10.60;77.30
1091;DHT22;534;48.704;9.122;2024-03-02T08:33:32;10.80;77.10
1091;DHT22;534;48.704;9.122;2024-03-02T08:35:59;11.10;75.50
1091;DHT22;534;48.704;9.122;2024-03-02T08:38:26;11.10;75.00
1091;DHT22;534;48.704;9.122;2024-03-02T08:40:53;10.90;75.30
1091;DHT22;534;48.704;9.122;2024-03-02T08:43:21;11.10;75.80
1091;DHT22;534;48.704;9.122;2024-03-02T08:45:48;10.80;75.80
1091;DHT22;534;48.704;9.122;2024-03-02T08:48:16;10.60;76.70
1091;DHT22;534;48.704;9.122;2024-03-02T08:50:42;10.60;76.30
1091;DHT22;534;48.704;9.122;2024-03-02T08:53:09;10.70;75.90
1091;DHT22;534;48.704;9.122;2024-03-02T08:55:36;10.60;76.10
1091;DHT22;534;48.704;9.122;2024-03-02T08:58:03;10.50;76.80
1091;DHT22;534;48.704;9.122;2024-03-02T09:00:31;10.20;77.50
1091;DHT22;534;48.704;9.122;2024-03-02T09:02:58;10.10;78.10
1091;DHT22;534;48.704;9.122;2024-03-02T09:05:24;10.10;77.40
1091;DHT22;534;48.704;9.122;2024-03-02T09:07:51;10.30;78.00
1091;DHT22;534;48.704;9.122;2024-03-02T09:10:18;10.20;77.30
1091;DHT22;534;48.704;9.122;2024-03-02T09:12:44;10.50;76.30
1091;DHT22;534;48.704;9.122;2024-03-02T09:15:11;10.60;76.00
1091;DHT22;534;48.704;9.122;2024-03-02T09:17:39;10.70;74.80
1091;DHT22;534;48.704;9.122;2024-03-02T09:20:07;10.70;75.70
1091;DHT22;534;48.704;9.122;2024-03-02T09:22:34;10.80;76.20
1091;DHT22;534;48.704;9.122;2024-03-02T09:25:00;10.70;75.30
1091;DHT22;534;48.704;9.122;2024-03-02T09:27:27;10.60;75.80
1091;DHT22;534;48.704;9.122;2024-03-02T09:29:54;10.60;76.30
1091;DHT22;534;48.704;9.122;2024-03-02T09:32:20;10.70;76.20
1091;DHT22;534;48.704;9.122;2024-03-02T09:34:48;10.80;76.40
1091;DHT22;534;48.704;9.122;2024-03-02T09:37:15;11.00;75.30
1091;DHT22;534;48.704;9.122;2024-03-02T09:39:43;11.10;74.40
1091;DHT22;534;48.704;9.122;2024-03-02T09:42:10;11.10;75.90
1091;DHT22;534;48.704;9.122;2024-03-02T09:44:37;11.20;74.50
1091;DHT22;534;48.704;9.122;2024-03-02T09:47:06;11.20;75.30
1091;DHT22;534;48.704;9.122;2024-03-02T09:49:33;11.20;75.50
1091;DHT22;534;48.704;9.122;2024-03-02T09:52:01;11.20;74.50
1091;DHT22;534;48.704;9.122;2024-03-02T09:54:27;11.30;74.80
1091;DHT22;534;48.704;9.122;2024-03-02T09:56:54;11.40;73.60
1091;DHT22;534;48.704;9.122;2024-03-02T09:59:21;11.40;72.70
1091;DHT22;534;48.704;9.122;2024-03-02T10:02:05;11.60;72.90
1091;DHT22;534;48.704;9.122;2024-03-02T10:04:33;11.60;71.10
1091;DHT22;534;48.704;9.122;2024-03-02T10:07:13;11.50;71.40
1091;DHT22;534;48.704;9.122;2024-03-02T10:09:39;11.60;72.00
1091;DHT22;534;48.704;9.122;2024-03-02T10:12:08;11.60;71.40
1091;DHT22;534;48.704;9.122;2024-03-02T10:14:35;11.60;71.30
1091;DHT22;534;48.704;9.122;2024-03-02T10:17:02;11.90;72.20
1091;DHT22;534;48.704;9.122;2024-03-02T10:19:30;12.00;70.30
1091;DHT22;534;48.704;9.122;2024-03-02T10:21:58;12.10;71.30
1091;DHT22;534;48.704;9.122;2024-03-02T10:24:27;12.30;70.70
1091;DHT22;534;48.704;9.122;2024-03-02T10:26:53;12.20;69.60
1091;DHT22;534;48.704;9.122;2024-03-02T10:29:22;12.30;70.30
1091;DHT22;534;48.704;9.122;2024-03-02T10:31:49;12.40;70.60
1091;DHT22;534;48.704;9.122;2024-03-02T10:34:15;12.50;70.10
1091;DHT22;534;48.704;9.122;2024-03-02T10:36:43;12.70;70.30
1091;DHT22;534;48.704;9.122;2024-03-02T10:39:12;12.80;69.10
1091;DHT22;534;48.704;9.122;2024-03-02T10:41:40;12.90;68.70
1091;DHT22;534;48.704;9.122;2024-03-02T10:44:09;13.00;68.50
1091;DHT22;534;48.704;9.122;2024-03-02T10:46:37;13.10;69.70
1091;DHT22;534;48.704;9.122;2024-03-02T10:49:05;13.20;70.00
1091;DHT22;534;48.704;9.122;2024-03-02T10:51:33;13.20;68.60
1091;DHT22;534;48.704;9.122;2024-03-02T10:54:02;13.20;68.70
1091;DHT22;534;48.704;9.122;2024-03-02T10:56:30;13.40;68.30
1091;DHT22;534;48.704;9.122;2024-03-02T10:59:02;13.60;68.50
1091;DHT22;534;48.704;9.122;2024-03-02T11:01:31;13.60;69.10
1091;DHT22;534;48.704;9.122;2024-03-02T11:03:59;13.80;69.70
1091;DHT22;534;48.704;9.122;2024-03-02T11:06:28;14.10;67.30
1091;DHT22;534;48.704;9.122;2024-03-02T11:08:57;14.30;65.80
1091;DHT22;534;48.704;9.122;2024-03-02T11:11:29;14.40;63.30
1091;DHT22;534;48.704;9.122;2024-03-02T11:13:58;14.50;62.30
1091;DHT22;534;48.704;9.122;2024-03-02T11:16:36;14.30;61.00
1091;DHT22;534;48.704;9.122;2024-03-02T11:19:05;14.40;60.10
1091;DHT22;534;48.704;9.122;2024-03-02T11:21:33;14.40;61.90
1091;DHT22;534;48.704;9.122;2024-03-02T11:24:00;14.40;64.10
1091;DHT22;534;48.704;9.122;2024-03-02T11:26:47;14.40;62.30
1091;DHT22;534;48.704;9.122;2024-03-02T11:29:42;14.50;61.80
1091;DHT22;534;48.704;9.122;2024-03-02T11:32:15;14.60;61.20
1091;DHT22;534;48.704;9.122;2024-03-02T11:34:43;14.60;64.70
1091;DHT22;534;48.704;9.122;2024-03-02T11:37:12;14.60;63.30
1091;DHT22;534;48.704;9.122;2024-03-02T11:39:39;14.60;63.00
1091;DHT22;534;48.704;9.122;2024-03-02T11:42:06;14.50;64.00
1091;DHT22;534;48.704;9.122;2024-03-02T11:44:35;14.60;63.40
1091;DHT22;534;48.704;9.122;2024-03-02T11:47:05;14.80;63.00
1091;DHT22;534;48.704;9.122;2024-03-02T11:49:41;14.70;61.50
1091;DHT22;534;48.704;9.122;2024-03-02T11:52:09;14.70;64.90
1091;DHT22;534;48.704;9.122;2024-03-02T11:54:37;14.60;63.00
1091;DHT22;534;48.704;9.122;2024-03-02T11:57:06;14.60;64.00
1091;DHT22;534;48.704;9.122;2024-03-02T11:59:33;14.80;62.40
1091;DHT22;534;48.704;9.122;2024-03-02T12:02:00;14.80;63.50
1091;DHT22;534;48.704;9.122;2024-03-02T12:04:26;14.70;63.50
1091;DHT22;534;48.704;9.122;2024-03-02T12:06:59;14.80;63.70
1091;DHT22;534;48.704;9.122;2024-03-02T12:09:26;14.80;62.80
1091;DHT22;534;48.704;9.122;2024-03-02T12:12:06;14.90;62.30
1091;DHT22;534;48.704;9.122;2024-03-02T12:14:34;15.00;63.00
1091;DHT22;534;48.704;9.122;2024-03-02T12:17:01;15.00;63.50
1091;DHT22;534;48.704;9.122;2024-03-02T12:19:29;15.10;62.30
1091;DHT22;534;48.704;9.122;2024-03-02T12:21:57;15.30;61.40
1091;DHT22;534;48.704;9.122;2024-03-02T12:24:28;15.50;61.20
1091;DHT22;534;48.704;9.122;2024-03-02T12:26:55;15.70;61.30
1091;DHT22;534;48.704;9.122;2024-03-02T12:29:23;16.00;58.70
1091;DHT22;534;48.704;9.122;2024-03-02T12:31:51;15.90;60.00
1091;DHT22;534;48.704;9.122;2024-03-02T12:34:19;16.10;60.70
1091;DHT22;534;48.704;9.122;2024-03-02T12:36:46;16.40;59.10
1091;DHT22;534;48.704;9.122;2024-03-02T12:39:16;16.40;58.20
1091;DHT22;534;48.704;9.122;2024-03-02T12:41:43;16.50;58.50
1091;DHT22;534;48.704;9.122;2024-03-02T12:44:10;16.40;58.70
1091;DHT22;534;48.704;9.122;2024-03-02T12:46:37;16.70;58.20
1091;DHT22;534;48.704;9.122;2024-03-02T12:49:08;16.70;56.50
1091;DHT22;534;48.704;9.122;2024-03-02T12:51:36;16.80;56.60
1091;DHT22;534;48.704;9.122;2024-03-02T12:54:03;16.90;56.40
1091;DHT22;534;48.704;9.122;2024-03-02T12:56:32;17.10;56.20
1091;DHT22;534;48.704;9.122;2024-03-02T12:58:59;17.20;56.00
1091;DHT22;534;48.704;9.122;2024-03-02T13:01:26;17.20;56.10
1091;DHT22;534;48.704;9.122;2024-03-02T13:03:53;17.10;56.20
1091;DHT22;534;48.704;9.122;2024-03-02T13:06:20;17.10;55.60
1091;DHT22;534;48.704;9.122;2024-03-02T13:08:48;17.30;56.00
1091;DHT22;534;48.704;9.122;2024-03-02T13:11:16;17.40;54.00
1091;DHT22;534;48.704;9.122;2024-03-02T13:13:44;17.40;53.70
1091;DHT22;534;48.704;9.122;2024-03-02T13:16:12;17.40;53.80
1091;DHT22;534;48.704;9.122;2024-03-02T13:18:39;17.50;52.90
1091;DHT22;534;48.704;9.122;2024-03-02T13:21:07;17.80;53.10
1091;DHT22;534;48.704;9.122;2024-03-02T13:23:33;18.00;51.80
1091;DHT22;534;48.704;9.122;2024-03-02T13:26:00;18.50;51.70
1091;DHT22;534;48.704;9.122;2024-03-02T13:28:27;18.70;50.70
1091;DHT22;534;48.704;9.122;2024-03-02T13:30:55;18.60;50.20
1091;DHT22;534;48.704;9.122;2024-03-02T13:33:22;18.40;50.60
1091;DHT22;534;48.704;9.122;2024-03-02T13:35:49;18.80;51.10
1091;DHT22;534;48.704;9.122;2024-03-02T13:38:16;18.90;51.50
1091;DHT22;534;48.704;9.122;2024-03-02T13:40:43;18.80;51.60
1091;DHT22;534;48.704;9.122;2024-03-02T13:43:10;19.30;52.10
1091;DHT22;534;48.704;9.122;2024-03-02T13:45:37;20.00;50.30
1091;DHT22;534;48.704;9.122;2024-03-02T13:48:06;20.50;49.20
1091;DHT22;534;48.704;9.122;2024-03-02T13:50:33;20.90;47.10
1091;DHT22;534;48.704;9.122;2024-03-02T13:52:59;20.70;47.20
1091;DHT22;534;48.704;9.122;2024-03-02T13:55:26;20.90;45.70
1091;DHT22;534;48.704;9.122;2024-03-02T13:57:53;21.30;46.20
1091;DHT22;534;48.704;9.122;2024-03-02T14:00:19;21.70;44.30
1091;DHT22;534;48.704;9.122;2024-03-02T14:02:46;21.90;44.00
1091;DHT22;534;48.704;9.122;2024-03-02T14:05:17;22.30;43.90
1091;DHT22;534;48.704;9.122;2024-03-02T14:07:44;23.20;43.20
1091;DHT22;534;48.704;9.122;2024-03-02T14:10:11;24.60;41.90
1091;DHT22;534;48.704;9.122;2024-03-02T14:12:41;25.80;39.10
1091;DHT22;534;48.704;9.122;2024-03-02T14:15:08;25.80;37.60
1091;DHT22;534;48.704;9.122;2024-03-02T14:17:34;25.00;39.10
1091;DHT22;534;48.704;9.122;2024-03-02T14:20:01;25.20;39.00
1091;DHT22;534;48.704;9.122;2024-03-02T14:22:31;24.50;39.50
1091;DHT22;534;48.704;9.122;2024-03-02T14:24:59;24.50;39.90
1091;DHT22;534;48.704;9.122;2024-03-02T14:27:26;25.80;38.90
1091;DHT22;534;48.704;9.122;2024-03-02T14:29:52;26.60;37.00
1091;DHT22;534;48.704;9.122;2024-03-02T14:32:19;26.50;37.10
1091;DHT22;534;48.704;9.122;2024-03-02T14:34:45;26.90;36.80
1091;DHT22;534;48.704;9.122;2024-03-02T14:37:13;27.40;35.80
1091;DHT22;534;48.704;9.122;2024-03-02T14:39:41;27.60;35.40
1091;DHT22;534;48.704;9.122;2024-03-02T14:42:08;28.10;35.50
1091;DHT22;534;48.704;9.122;2024-03-02T14:44:34;28.00;35.20
1091;DHT22;534;48.704;9.122;2024-03-02T14:47:01;28.20;34.20
1091;DHT22;534;48.704;9.122;2024-03-02T14:49:29;29.00;33.30
1091;DHT22;534;48.704;9.122;2024-03-02T14:51:56;28.70;33.60
1091;DHT22;534;48.704;9.122;2024-03-02T14:54:23;29.10;33.60
1091;DHT22;534;48.704;9.122;2024-03-02T14:56:51;28.60;33.60
1091;DHT22;534;48.704;9.122;2024-03-02T14:59:18;28.30;34.00
1091;DHT22;534;48.704;9.122;2024-03-02T15:01:44;28.30;33.60
1091;DHT22;534;48.704;9.122;2024-03-02T15:04:11;27.70;34.10
1091;DHT22;534;48.704;9.122;2024-03-02T15:06:39;26.70;35.40
1091;DHT22;534;48.704;9.122;2024-03-02T15:09:05;26.30;35.50
1091;DHT22;534;48.704;9.122;2024-03-02T15:11:33;25.80;35.90
1091;DHT22;534;48.704;9.122;2024-03-02T15:14:01;25.10;37.10
1091;DHT22;534;48.704;9.122;2024-03-02T15:16:28;24.50;38.20
1091;DHT22;534;48.704;9.122;2024-03-02T15:18:55;24.00;39.00
1091;DHT22;534;48.704;9.122;2024-03-02T15:21:21;23.70;39.20
1091;DHT22;534;48.704;9.122;2024-03-02T15:23:48;22.80;39.70
1091;DHT22;534;48.704;9.122;2024-03-02T15:26:15;21.70;41.50
1091;DHT22;534;48.704;9.122;2024-03-02T15:28:41;21.10;43.00
1091;DHT22;534;48.704;9.122;2024-03-02T15:31:09;20.30;43.40
1091;DHT22;534;48.704;9.122;2024-03-02T15:33:36;19.60;44.90
1091;DHT22;534;48.704;9.122;2024-03-02T15:36:04;18.80;46.00
1091;DHT22;534;48.704;9.122;2024-03-02T15:38:30;18.10;46.70
1091;DHT22;534;48.704;9.122;2024-03-02T15:40:58;17.70;47.80
1091;DHT22;534;48.704;9.122;2024-03-02T15:43:25;17.40;48.20
1091;DHT22;534;48.704;9.122;2024-03-02T15:45:52;16.90;49.20
1091;DHT22;534;48.704;9.122;2024-03-02T15:48:20;16.60;49.60
1091;DHT22;534;48.704;9.122;2024-03-02T15:50:47;16.50;49.90
1091;DHT22;534;48.704;9.122;2024-03-02T15:53:15;16.40;50.40
1091;DHT22;534;48.704;9.122;2024-03-02T15:55:42;16.30;51.10
1091;DHT22;534;48.704;9.122;2024-03-02T15:58:08;16.00;51.40
1091;DHT22;534;48.704;9.122;2024-03-02T16:00:35;15.70;52.80
1091;DHT22;534;48.704;9.122;2024-03-02T16:03:02;15.40;53.70
1091;DHT22;534;48.704;9.122;2024-03-02T16:05:30;15.30;54.30
1091;DHT22;534;48.704;9.122;2024-03-02T16:07:56;15.30;55.20
1091;DHT22;534;48.704;9.122;2024-03-02T16:10:23;15.20;55.50
1091;DHT22;534;48.704;9.122;2024-03-02T16:12:50;15.00;56.00
1091;DHT22;534;48.704;9.122;2024-03-02T16:15:18;15.00;56.80
1091;DHT22;534;48.704;9.122;2024-03-02T16:17:45;15.00;57.20
1091;DHT22;534;48.704;9.122;2024-03-02T16:20:12;14.90;58.00
1091;DHT22;534;48.704;9.122;2024-03-02T16:22:40;14.80;59.00
1091;DHT22;534;48.704;9.122;2024-03-02T16:25:07;14.60;59.90
1091;DHT22;534;48.704;9.122;2024-03-02T16:27:34;14.50;60.60
1091;DHT22;534;48.704;9.122;2024-03-02T16:30:01;14.50;61.00
1091;DHT22;534;48.704;9.122;2024-03-02T16:32:27;14.50;61.30
1091;DHT22;534;48.704;9.122;2024-03-02T16:34:54;14.50;61.30
1091;DHT22;534;48.704;9.122;2024-03-02T16:37:21;14.50;61.50
1091;DHT22;534;48.704;9.122;2024-03-02T16:39:51;14.40;61.90
1091;DHT22;534;48.704;9.122;2024-03-02T16:42:18;14.40;62.60
1091;DHT22;534;48.704;9.122;2024-03-02T16:44:45;14.30;63.00
1091;DHT22;534;48.704;9.122;2024-03-02T16:47:13;14.40;62.80
1091;DHT22;534;48.704;9.122;2024-03-02T16:49:43;14.40;62.80
1091;DHT22;534;48.704;9.122;2024-03-02T16:52:10;14.40;63.10
1091;DHT22;534;48.704;9.122;2024-03-02T16:54:38;14.40;63.00
1091;DHT22;534;48.704;9.122;2024-03-02T16:57:06;14.40;63.20
1091;DHT22;534;48.704;9.122;2024-03-02T16:59:34;14.40;63.70
1091;DHT22;534;48.704;9.122;2024-03-02T17:02:02;14.30;64.10
1091;DHT22;534;48.704;9.122;2024-03-02T17:04:28;14.30;64.30
1091;DHT22;534;48.704;9.122;2024-03-02T17:06:55;14.40;64.20
1091;DHT22;534;48.704;9.122;2024-03-02T17:09:22;14.30;64.50
1091;DHT22;534;48.704;9.122;2024-03-02T17:11:48;14.20;64.90
1091;DHT22;534;48.704;9.122;2024-03-02T17:14:16;14.20;65.40
1091;DHT22;534;48.704;9.122;2024-03-02T17:16:43;14.10;65.90
1091;DHT22;534;48.704;9.122;2024-03-02T17:19:09;14.10;66.20
1091;DHT22;534;48.704;9.122;2024-03-02T17:21:36;14.10;66.40
1091;DHT22;534;48.704;9.122;2024-03-02T17:24:03;14.20;66.30
1091;DHT22;534;48.704;9.122;2024-03-02T17:26:30;14.20;66.50
1091;DHT22;534;48.704;9.122;2024-03-02T17:28:57;14.10;66.60
1091;DHT22;534;48.704;9.122;2024-03-02T17:31:25;14.20;66.60
1091;DHT22;534;48.704;9.122;2024-03-02T17:33:51;14.30;66.60
1091;DHT22;534;48.704;9.122;2024-03-02T17:36:18;14.20;67.00
1091;DHT22;534;48.704;9.122;2024-03-02T17:38:45;14.10;67.50
1091;DHT22;534;48.704;9.122;2024-03-02T17:41:11;14.00;68.00
1091;DHT22;534;48.704;9.122;2024-03-02T17:43:38;14.00;68.30
1091;DHT22;534;48.704;9.122;2024-03-02T17:46:05;14.10;68.20
1091;DHT22;534;48.704;9.122;2024-03-02T17:48:33;14.10;68.30
1091;DHT22;534;48.704;9.122;2024-03-02T17:50:59;14.10;69.00
1091;DHT22;534;48.704;9.122;2024-03-02T17:53:26;13.90;70.10
1091;DHT22;534;48.704;9.122;2024-03-02T17:55:53;13.70;71.60
1091;DHT22;534;48.704;9.122;2024-03-02T17:58:19;13.40;73.10
1091;DHT22;534;48.704;9.122;2024-03-02T18:00:46;13.20;73.90
1091;DHT22;534;48.704;9.122;2024-03-02T18:03:13;13.10;74.50
1091;DHT22;534;48.704;9.122;2024-03-02T18:05:41;13.00;75.20
1091;DHT22;534;48.704;9.122;2024-03-02T18:08:08;12.90;75.70
1091;DHT22;534;48.704;9.122;2024-03-02T18:10:34;12.80;76.20
1091;DHT22;534;48.704;9.122;2024-03-02T18:13:01;12.70;76.80
1091;DHT22;534;48.704;9.122;2024-03-02T18:15:27;12.70;77.10
1091;DHT22;534;48.704;9.122;2024-03-02T18:17:54;12.60;77.40
1091;DHT22;534;48.704;9.122;2024-03-02T18:20:21;12.60;77.60
1091;DHT22;534;48.704;9.122;2024-03-02T18:22:49;12.60;77.80
1091;DHT22;534;48.704;9.122;2024-03-02T18:25:15;12.50;78.10
1091;DHT22;534;48.704;9.122;2024-03-02T18:27:42;12.50;78.30
1091;DHT22;534;48.704;9.122;2024-03-02T18:30:09;12.50;78.30
1091;DHT22;534;48.704;9.122;2024-03-02T18:32:37;12.50;78.30
1091;DHT22;534;48.704;9.122;2024-03-02T18:35:05;12.60;78.30
1091;DHT22;534;48.704;9.122;2024-03-02T18:37:31;12.50;78.40
1091;DHT22;534;48.704;9.122;2024-03-02T18:39:59;12.40;78.60
1091;DHT22;534;48.704;9.122;2024-03-02T18:42:26;12.50;78.40
1091;DHT22;534;48.704;9.122;2024-03-02T18:44:53;12.50;78.40
1091;DHT22;534;48.704;9.122;2024-03-02T18:47:19;12.40;78.70
1091;DHT22;534;48.704;9.122;2024-03-02T18:49:46;12.50;78.50
1091;DHT22;534;48.704;9.122;2024-03-02T18:52:13;12.50;78.50
1091;DHT22;534;48.704;9.122;2024-03-02T18:54:40;12.50;78.50
1091;DHT22;534;48.704;9.122;2024-03-02T18:57:08;12.40;78.80
1091;DHT22;534;48.704;9.122;2024-03-02T18:59:36;12.40;78.70
1091;DHT22;534;48.704;9.122;2024-03-02T19:02:03;12.40;79.10
1091;DHT22;534;48.704;9.122;2024-03-02T19:04:29;12.30;78.90
1091;DHT22;534;48.704;9.122;2024-03-02T19:06:56;12.20;79.10
1091;DHT22;534;48.704;9.122;2024-03-02T19:09:22;12.10;79.40
1091;DHT22;534;48.704;9.122;2024-03-02T19:11:49;12.20;79.30
1091;DHT22;534;48.704;9.122;2024-03-02T19:14:17;12.20;79.30
1091;DHT22;534;48.704;9.122;2024-03-02T19:16:44;12.20;79.30
1091;DHT22;534;48.704;9.122;2024-03-02T19:19:10;12.30;79.00
1091;DHT22;534;48.704;9.122;2024-03-02T19:21:37;12.30;79.20
1091;DHT22;534;48.704;9.122;2024-03-02T19:24:04;12.30;78.90
1091;DHT22;534;48.704;9.122;2024-03-02T19:26:30;12.30;79.00
1091;DHT22;534;48.704;9.122;2024-03-02T19:28:57;12.40;78.60
1091;DHT22;534;48.704;9.122;2024-03-02T19:31:25;12.50;78.30
1091;DHT22;534;48.704;9.122;2024-03-02T19:33:51;12.40;78.50
1091;DHT22;534;48.704;9.122;2024-03-02T19:36:18;12.40;78.40
1091;DHT22;534;48.704;9.122;2024-03-02T19:38:45;12.50;78.10
1091;DHT22;534;48.704;9.122;2024-03-02T19:41:11;12.40;78.10
1091;DHT22;534;48.704;9.122;2024-03-02T19:43:38;12.40;78.30
1091;DHT22;534;48.704;9.122;2024-03-02T19:46:05;12.50;77.90
1091;DHT22;534;48.704;9.122;2024-03-02T19:48:33;12.50;78.00
1091;DHT22;534;48.704;9.122;2024-03-02T19:50:59;12.60;77.60
1091;DHT22;534;48.704;9.122;2024-03-02T19:53:26;12.60;77.60
1091;DHT22;534;48.704;9.122;2024-03-02T19:55:52;12.50;77.80
1091;DHT22;534;48.704;9.122;2024-03-02T19:58:19;12.50;77.80
1091;DHT22;534;48.704;9.122;2024-03-02T20:00:46;12.40;77.90
1091;DHT22;534;48.704;9.122;2024-03-02T20:03:13;12.40;77.90
1091;DHT22;534;48.704;9.122;2024-03-02T20:05:41;12.40;77.90
1091;DHT22;534;48.704;9.122;2024-03-02T20:08:07;12.40;78.50
1091;DHT22;534;48.704;9.122;2024-03-02T20:10:33;12.50;77.90
1091;DHT22;534;48.704;9.122;2024-03-02T20:13:00;12.40;77.80
1091;DHT22;534;48.704;9.122;2024-03-02T20:15:30;12.40;77.80
1091;DHT22;534;48.704;9.122;2024-03-02T20:17:56;12.30;78.20
1091;DHT22;534;48.704;9.122;2024-03-02T20:20:23;12.30;78.20
1091;DHT22;534;48.704;9.122;2024-03-02T20:22:51;12.30;78.10
1091;DHT22;534;48.704;9.122;2024-03-02T20:25:18;12.40;77.90
1091;DHT22;534;48.704;9.122;2024-03-02T20:27:44;12.30;78.00
1091;DHT22;534;48.704;9.122;2024-03-02T20:30:12;12.30;78.10
1091;DHT22;534;48.704;9.122;2024-03-02T20:32:39;12.30;78.00
1091;DHT22;534;48.704;9.122;2024-03-02T20:35:06;12.40;77.60
1091;DHT22;534;48.704;9.122;2024-03-02T20:37:33;12.40;77.70
1091;DHT22;534;48.704;9.122;2024-03-02T20:40:01;12.40;77.50
1091;DHT22;534;48.704;9.122;2024-03-02T20:42:27;12.40;77.60
1091;DHT22;534;48.704;9.122;2024-03-02T20:44:54;12.40;77.50
1091;DHT22;534;48.704;9.122;2024-03-02T20:47:21;12.40;77.30
1091;DHT22;534;48.704;9.122;2024-03-02T20:49:48;12.40;77.20
1091;DHT22;534;48.704;9.122;2024-03-02T20:52:16;12.40;77.10
1091;DHT22;534;48.704;9.122;2024-03-02T20:54:42;12.40;77.10
1091;DHT22;534;48.704;9.122;2024-03-02T20:57:10;12.30;77.10
1091;DHT22;534;48.704;9.122;2024-03-02T20:59:37;12.30;77.10
1091;DHT22;534;48.704;9.122;2024-03-02T21:02:04;12.30;77.10
1091;DHT22;534;48.704;9.122;2024-03-02T21:04:31;12.30;77.00
1091;DHT22;534;48.704;9.122;2024-03-02T21:06:58;12.20;77.10
1091;DHT22;534;48.704;9.122;2024-03-02T21:09:25;12.20;77.00
1091;DHT22;534;48.704;9.122;2024-03-02T21:11:51;12.20;77.00
1091;DHT22;534;48.704;9.122;2024-03-02T21:14:19;12.20;76.90
1091;DHT22;534;48.704;9.122;2024-03-02T21:16:48;12.20;77.00
1091;DHT22;534;48.704;9.122;2024-03-02T21:19:15;12.20;77.00
1091;DHT22;534;48.704;9.122;2024-03-02T21:21:42;12.20;77.00